createdAt,value
2022-11-25T00:01:17.419Z,6.11
2022-11-25T00:03:45.760Z,6.08
2022-11-25T00:06:22.631Z,6.02
2022-11-25T00:08:54.274Z,6.01
2022-11-25T00:11:21.086Z,6.03
2022-11-25T00:13:48.846Z,6.05
2022-11-25T00:16:18.629Z,5.93
2022-11-25T00:18:49.716Z,5.80
2022-11-25T00:21:19.460Z,5.82
2022-11-25T00:23:54.945Z,5.88
2022-11-25T00:26:23.073Z,5.88
2022-11-25T00:28:51.267Z,5.96
2022-11-25T00:31:24.830Z,6.00
2022-11-25T00:33:52.254Z,5.92
2022-11-25T00:36:32.901Z,5.88
2022-11-25T00:39:01.963Z,5.98
2022-11-25T00:41:29.748Z,6.06
2022-11-25T00:43:56.773Z,6.17
2022-11-25T00:46:23.788Z,6.24
2022-11-25T00:48:50.875Z,6.14
2022-11-25T00:51:17.772Z,6.15
2022-11-25T00:53:45.003Z,6.02
2022-11-25T00:56:11.918Z,6.01
2022-11-25T00:58:39.442Z,6.01
2022-11-25T01:01:06.581Z,6.09
2022-11-25T01:03:34.327Z,6.17
2022-11-25T01:06:02.300Z,6.26
2022-11-25T01:08:33.338Z,6.37
2022-11-25T01:11:06.464Z,6.20
2022-11-25T01:13:33.530Z,6.08
2022-11-25T01:16:05.613Z,6.10
2022-11-25T01:18:33.384Z,6.15
2022-11-25T01:21:26.604Z,6.25
2022-11-25T01:23:53.906Z,6.23
2022-11-25T01:26:23.357Z,6.14
2022-11-25T01:28:54.790Z,6.18
2022-11-25T01:31:23.772Z,6.16
2022-11-25T01:34:01.956Z,6.17
2022-11-25T01:36:29.540Z,6.24
2022-11-25T01:38:59.735Z,6.14
2022-11-25T01:41:29.535Z,6.13
2022-11-25T01:44:12.376Z,6.00
2022-11-25T01:47:03.772Z,6.06
2022-11-25T01:49:59.950Z,6.13
2022-11-25T01:52:33.149Z,6.24
2022-11-25T01:55:17.921Z,6.24
2022-11-25T01:57:48.836Z,6.17
2022-11-25T02:00:16.466Z,6.37
2022-11-25T02:02:44.260Z,6.47
2022-11-25T02:05:16.514Z,6.64
2022-11-25T02:07:46.510Z,6.73
2022-11-25T02:10:20.123Z,6.82
2022-11-25T02:12:48.041Z,6.93
2022-11-25T02:15:16.010Z,7.06
2022-11-25T02:17:44.258Z,7.09
2022-11-25T02:20:14.181Z,7.15
2022-11-25T02:22:56.078Z,7.18
2022-11-25T02:25:29.378Z,7.15
2022-11-25T02:28:03.270Z,7.27
2022-11-25T02:30:30.321Z,7.33
2022-11-25T02:32:58.993Z,7.36
2022-11-25T02:35:39.356Z,7.44
2022-11-25T02:38:08.382Z,7.39
2022-11-25T02:40:41.031Z,7.48
2022-11-25T02:43:07.856Z,7.50
2022-11-25T02:45:47.568Z,7.60
2022-11-25T02:48:14.556Z,7.56
2022-11-25T02:50:42.008Z,7.63
2022-11-25T02:53:09.117Z,7.56
2022-11-25T02:55:35.933Z,7.38
2022-11-25T02:58:03.008Z,7.31
2022-11-25T03:00:30.198Z,7.33
2022-11-25T03:02:57.072Z,7.38
2022-11-25T03:05:24.114Z,7.46
2022-11-25T03:07:51.138Z,7.41
2022-11-25T03:10:18.482Z,7.51
2022-11-25T03:12:45.483Z,7.55
2022-11-25T03:15:12.413Z,7.56
2022-11-25T03:17:39.426Z,7.72
2022-11-25T03:20:08.223Z,7.81
2022-11-25T03:22:35.313Z,7.82
2022-11-25T03:25:02.249Z,7.73
2022-11-25T03:27:30.363Z,7.86
2022-11-25T03:29:57.608Z,7.93
2022-11-25T03:32:24.541Z,7.74
2022-11-25T03:34:51.389Z,7.73
2022-11-25T03:37:18.740Z,7.66
2022-11-25T03:39:46.062Z,7.62
2022-11-25T03:42:13.030Z,7.59
2022-11-25T03:44:40.065Z,7.65
2022-11-25T03:47:07.024Z,7.70
2022-11-25T03:49:33.827Z,7.79
2022-11-25T03:52:01.226Z,7.83
2022-11-25T03:54:28.106Z,7.81
2022-11-25T03:56:55.074Z,7.81
2022-11-25T03:59:21.941Z,7.78
2022-11-25T04:01:48.873Z,7.80
2022-11-25T04:04:15.843Z,7.86
2022-11-25T04:06:42.849Z,7.93
2022-11-25T04:09:10.973Z,7.96
2022-11-25T04:11:38.204Z,7.93
2022-11-25T04:14:05.067Z,7.73
2022-11-25T04:16:32.554Z,7.79
2022-11-25T04:18:59.469Z,7.62
2022-11-25T04:21:26.303Z,7.52
2022-11-25T04:23:53.201Z,7.59
2022-11-25T04:26:20.172Z,7.65
2022-11-25T04:28:47.137Z,7.50
2022-11-25T04:31:14.170Z,7.60
2022-11-25T04:33:41.281Z,7.67
2022-11-25T04:36:08.478Z,7.76
2022-11-25T04:38:35.341Z,7.84
2022-11-25T04:41:02.189Z,7.95
2022-11-25T04:43:29.332Z,7.86
2022-11-25T04:46:13.658Z,7.79
2022-11-25T04:48:41.348Z,7.90
2022-11-25T04:51:08.268Z,8.05
2022-11-25T04:53:35.104Z,8.08
2022-11-25T04:56:01.971Z,7.97
2022-11-25T04:58:31.602Z,7.96
2022-11-25T05:00:58.552Z,8.06
2022-11-25T05:03:25.407Z,8.04
2022-11-25T05:05:52.530Z,8.01
2022-11-25T05:08:19.479Z,7.77
2022-11-25T05:10:46.392Z,7.52
2022-11-25T05:13:13.374Z,7.22
2022-11-25T05:15:40.467Z,6.80
2022-11-25T05:18:07.352Z,6.71
2022-11-25T05:20:34.217Z,6.56
2022-11-25T05:23:01.168Z,6.46
2022-11-25T05:25:28.130Z,6.57
2022-11-25T05:27:55.025Z,6.64
2022-11-25T05:30:21.892Z,6.59
2022-11-25T05:32:48.827Z,6.54
2022-11-25T05:35:15.888Z,6.46
2022-11-25T05:37:42.923Z,6.40
2022-11-25T05:40:10.375Z,6.36
2022-11-25T05:42:37.589Z,6.54
2022-11-25T05:45:04.780Z,6.75
2022-11-25T05:47:31.884Z,6.86
2022-11-25T05:49:58.672Z,6.93
2022-11-25T05:52:25.546Z,7.05
2022-11-25T05:54:56.937Z,7.08
2022-11-25T05:57:24.260Z,6.95
2022-11-25T05:59:51.117Z,6.92
2022-11-25T06:02:18.196Z,6.92
2022-11-25T06:04:45.055Z,6.88
2022-11-25T06:07:11.997Z,7.06
2022-11-25T06:09:38.958Z,7.24
2022-11-25T06:12:06.005Z,7.33
2022-11-25T06:14:33.117Z,7.44
2022-11-25T06:17:00.098Z,7.50
2022-11-25T06:19:27.024Z,7.63
2022-11-25T06:21:53.908Z,7.58
2022-11-25T06:24:20.839Z,7.60
2022-11-25T06:26:47.684Z,7.58
2022-11-25T06:29:14.539Z,7.54
2022-11-25T06:31:41.497Z,7.37
2022-11-25T06:34:08.502Z,7.22
2022-11-25T06:36:35.444Z,6.97
2022-11-25T06:39:02.319Z,6.94
2022-11-25T06:41:29.221Z,6.91
2022-11-25T06:43:59.051Z,6.89
2022-11-25T06:46:26.003Z,7.11
2022-11-25T06:48:54.191Z,7.10
2022-11-25T06:51:21.241Z,6.98
2022-11-25T06:53:48.182Z,7.03
2022-11-25T06:56:16.754Z,7.08
2022-11-25T06:58:45.035Z,7.22
2022-11-25T07:01:16.133Z,7.26
2022-11-25T07:03:44.976Z,7.25
2022-11-25T07:06:16.720Z,7.10
2022-11-25T07:08:43.893Z,7.04
2022-11-25T07:11:23.510Z,6.95
2022-11-25T07:13:59.207Z,6.95
2022-11-25T07:16:27.057Z,6.98
2022-11-25T07:18:54.093Z,7.16
2022-11-25T07:21:25.336Z,7.23
2022-11-25T07:23:52.888Z,7.38
2022-11-25T07:26:22.890Z,7.55
2022-11-25T07:28:51.174Z,7.71
2022-11-25T07:31:27.704Z,8.03
2022-11-25T07:34:04.206Z,8.48
2022-11-25T07:36:32.687Z,8.93
2022-11-25T07:39:02.395Z,9.30
2022-11-25T07:41:29.466Z,9.57
2022-11-25T07:44:02.475Z,9.61
2022-11-25T07:46:41.791Z,9.61
2022-11-25T07:49:12.320Z,9.67
2022-11-25T07:51:44.482Z,9.83
2022-11-25T07:54:12.894Z,9.82
2022-11-25T07:56:41.995Z,9.80
2022-11-25T07:59:12.920Z,9.99
2022-11-25T08:01:40.150Z,10.18
2022-11-25T08:04:08.046Z,10.14
2022-11-25T08:06:41.957Z,10.23
2022-11-25T08:09:13.562Z,10.36
2022-11-25T08:11:41.354Z,10.64
2022-11-25T08:14:08.742Z,10.66
2022-11-25T08:16:35.589Z,10.72
2022-11-25T08:19:04.543Z,10.52
2022-11-25T08:21:31.325Z,10.31
2022-11-25T08:23:58.513Z,10.04
2022-11-25T08:26:31.044Z,10.22
2022-11-25T08:28:58.367Z,10.23
2022-11-25T08:31:30.816Z,10.38
2022-11-25T08:33:59.340Z,10.28
2022-11-25T08:39:02.440Z,10.25
2022-11-25T08:41:36.970Z,10.27
2022-11-25T08:44:06.490Z,10.29
2022-11-25T08:46:36.170Z,10.31
2022-11-25T08:49:05.362Z,10.13
2022-11-25T08:51:34.989Z,10.04
2022-11-25T08:54:02.206Z,9.92
2022-11-25T08:56:29.282Z,9.82
2022-11-25T08:58:56.741Z,9.72
2022-11-25T09:01:24.732Z,9.56
2022-11-25T09:03:53.805Z,9.60
2022-11-25T09:06:21.304Z,9.63
2022-11-25T09:08:48.842Z,9.61
2022-11-25T09:11:16.003Z,9.66
2022-11-25T09:13:43.144Z,9.79
2022-11-25T09:16:10.251Z,10.07
2022-11-25T09:18:37.498Z,10.05
2022-11-25T09:21:12.944Z,10.11
2022-11-25T09:23:40.105Z,10.30
2022-11-25T09:26:08.483Z,10.71
2022-11-25T09:28:35.850Z,11.07
2022-11-25T09:31:10.039Z,11.05
2022-11-25T09:33:37.645Z,11.01
2022-11-25T09:36:05.580Z,10.91
2022-11-25T09:38:32.734Z,10.72
2022-11-25T09:41:10.361Z,10.68
2022-11-25T09:43:42.910Z,10.67
2022-11-25T09:46:30.920Z,10.72
2022-11-25T09:49:12.415Z,10.38
2022-11-25T09:52:15.524Z,10.29
2022-11-25T09:54:48.541Z,10.16
2022-11-25T09:57:15.338Z,10.13
2022-11-25T10:00:08.821Z,10.08
2022-11-25T10:02:39.395Z,9.89
2022-11-25T10:05:13.573Z,9.85
2022-11-25T10:07:45.254Z,9.89
2022-11-25T10:10:43.673Z,9.82
2022-11-25T10:13:19.427Z,9.75
2022-11-25T10:15:50.864Z,9.73
2022-11-25T10:18:30.377Z,9.49
2022-11-25T10:20:57.306Z,9.53
2022-11-25T10:23:38.502Z,9.63
2022-11-25T10:26:17.131Z,9.37
2022-11-25T10:28:49.846Z,9.13
2022-11-25T10:31:25.372Z,9.09
2022-11-25T10:33:56.472Z,9.26
2022-11-25T10:36:41.724Z,9.42
2022-11-25T10:39:17.856Z,9.44
2022-11-25T10:41:52.776Z,9.55
2022-11-25T10:44:30.448Z,9.87
2022-11-25T10:47:15.691Z,9.94
2022-11-25T10:50:03.098Z,9.85
2022-11-25T10:52:35.619Z,9.67
2022-11-25T10:55:10.677Z,9.65
2022-11-25T10:57:37.693Z,9.64
2022-11-25T11:00:12.788Z,9.53
2022-11-25T11:02:42.667Z,9.46
2022-11-25T11:05:09.558Z,9.36
2022-11-25T11:07:42.166Z,9.26
2022-11-25T11:10:15.281Z,9.37
2022-11-25T11:13:02.175Z,9.12
2022-11-25T11:15:41.353Z,8.99
2022-11-25T11:18:20.768Z,8.79
2022-11-25T11:20:50.559Z,8.73
2022-11-25T11:23:17.887Z,8.53
2022-11-25T11:26:02.331Z,8.41
2022-11-25T11:28:35.130Z,8.22
2022-11-25T11:31:23.037Z,8.20
2022-11-25T11:34:05.940Z,8.18
2022-11-25T11:37:08.192Z,7.95
2022-11-25T11:40:13.621Z,7.90
2022-11-25T11:43:07.820Z,8.02
2022-11-25T11:45:42.730Z,7.94
2022-11-25T11:48:18.291Z,7.95
2022-11-25T11:51:07.081Z,7.86
2022-11-25T11:54:00.953Z,7.86
2022-11-25T11:56:55.257Z,7.77
2022-11-25T11:59:52.976Z,7.78
2022-11-25T12:02:38.399Z,7.81
2022-11-25T12:05:11.393Z,7.84
2022-11-25T12:08:07.518Z,7.85
2022-11-25T12:10:40.622Z,7.91
2022-11-25T12:13:16.895Z,7.97
2022-11-25T12:16:06.296Z,7.99
2022-11-25T12:19:03.640Z,8.01
2022-11-25T12:21:55.468Z,8.23
2022-11-25T12:24:40.362Z,8.28
2022-11-25T12:27:08.991Z,8.41
2022-11-25T12:29:42.285Z,8.43
2022-11-25T12:32:28.969Z,8.52
2022-11-25T12:35:07.365Z,8.59
2022-11-25T12:37:48.755Z,8.49
2022-11-25T12:40:20.633Z,8.38
2022-11-25T12:42:49.161Z,8.36
2022-11-25T12:45:26.547Z,8.31
2022-11-25T12:47:53.778Z,8.31
2022-11-25T12:50:46.142Z,8.09
2022-11-25T12:53:43.893Z,8.05
2022-11-25T12:56:20.081Z,8.11
2022-11-25T12:59:24.974Z,8.04
2022-11-25T13:01:51.794Z,8.00
2022-11-25T13:05:25.135Z,7.94
2022-11-25T13:08:12.102Z,7.93
2022-11-25T13:10:47.964Z,7.91
2022-11-25T13:13:33.252Z,7.93
2022-11-25T13:16:03.930Z,7.95
2022-11-25T13:18:33.230Z,7.84
2022-11-25T13:21:20.529Z,7.83
2022-11-25T13:23:49.690Z,7.85
2022-11-25T13:26:28.750Z,7.98
2022-11-25T13:28:56.581Z,7.87
2022-11-25T13:31:30.110Z,7.77
2022-11-25T13:34:18.795Z,7.52
2022-11-25T13:36:50.448Z,7.51
2022-11-25T13:39:37.749Z,7.40
2022-11-25T13:42:24.862Z,7.35
2022-11-25T13:44:55.033Z,7.35
2022-11-25T13:47:23.419Z,7.34
2022-11-25T13:49:50.274Z,7.29
2022-11-25T13:52:28.644Z,7.30
2022-11-25T13:54:57.084Z,7.20
2022-11-25T13:57:31.186Z,7.19
2022-11-25T14:00:30.067Z,7.09
2022-11-25T14:03:19.561Z,7.05
2022-11-25T14:05:50.777Z,7.11
2022-11-25T14:08:29.733Z,7.08
2022-11-25T14:11:03.260Z,7.12
2022-11-25T14:13:44.653Z,7.11
2022-11-25T14:16:42.840Z,7.05
2022-11-25T14:22:48.792Z,7.06
2022-11-25T14:25:23.063Z,7.08
2022-11-25T14:28:03.492Z,7.01
2022-11-25T14:30:31.702Z,7.00
2022-11-25T14:33:11.679Z,7.03
2022-11-25T14:35:48.407Z,7.01
2022-11-25T14:38:20.711Z,6.94
2022-11-25T14:40:55.538Z,6.91
2022-11-25T14:43:24.797Z,6.82
2022-11-25T14:46:13.354Z,6.85
2022-11-25T14:48:40.221Z,6.80
2022-11-25T14:51:11.389Z,6.77
2022-11-25T14:53:47.837Z,6.65
2022-11-25T14:56:21.941Z,6.69
2022-11-25T14:58:51.230Z,6.72
2022-11-25T15:01:51.679Z,6.72
2022-11-25T15:04:24.007Z,6.69
2022-11-25T15:06:56.843Z,6.57
2022-11-25T15:09:28.333Z,6.58
2022-11-25T15:11:58.282Z,6.58
2022-11-25T15:14:28.217Z,6.53
2022-11-25T15:16:57.609Z,6.46
2022-11-25T15:19:33.778Z,6.44
2022-11-25T15:22:22.349Z,6.45
2022-11-25T15:24:55.847Z,6.37
2022-11-25T15:27:26.189Z,6.41
2022-11-25T15:29:54.219Z,6.32
2022-11-25T15:32:33.062Z,6.40
2022-11-25T15:35:02.227Z,6.36
2022-11-25T15:37:30.038Z,6.34
2022-11-25T15:40:30.054Z,6.36
2022-11-25T15:43:06.315Z,6.31
2022-11-25T15:45:44.734Z,6.34
2022-11-25T15:48:28.999Z,6.29
2022-11-25T15:51:15.976Z,6.25
2022-11-25T15:54:07.035Z,6.19
2022-11-25T15:56:38.163Z,6.19
2022-11-25T15:59:05.135Z,6.20
2022-11-25T16:01:34.863Z,6.09
2022-11-25T16:04:19.776Z,6.14
2022-11-25T16:06:55.945Z,6.17
2022-11-25T16:09:24.959Z,6.09
2022-11-25T16:11:51.872Z,6.13
2022-11-25T16:14:25.899Z,6.14
2022-11-25T16:17:01.836Z,6.10
2022-11-25T16:19:49.064Z,6.13
2022-11-25T16:22:19.180Z,6.16
2022-11-25T16:24:58.939Z,6.18
2022-11-25T16:27:29.828Z,6.14
2022-11-25T16:30:05.936Z,6.11
2022-11-25T16:32:33.476Z,6.11
2022-11-25T16:35:20.860Z,6.03
2022-11-25T16:37:49.467Z,6.08
2022-11-25T16:40:18.953Z,6.07
2022-11-25T16:42:50.313Z,6.07
2022-11-25T16:45:23.758Z,6.04
2022-11-25T16:47:54.160Z,6.05
2022-11-25T16:50:21.458Z,6.08
2022-11-25T16:52:48.205Z,6.14
2022-11-25T16:55:15.325Z,5.99
2022-11-25T16:57:43.285Z,6.04
2022-11-25T17:00:16.407Z,6.09
2022-11-25T17:02:45.742Z,6.14
2022-11-25T17:05:19.469Z,6.20
2022-11-25T17:07:46.996Z,6.11
2022-11-25T17:10:14.084Z,6.06
2022-11-25T17:12:43.400Z,6.04
2022-11-25T17:15:35.492Z,6.09
2022-11-25T17:18:06.853Z,6.05
2022-11-25T17:20:33.834Z,6.05
2022-11-25T17:23:00.603Z,6.02
2022-11-25T17:25:32.279Z,5.97
2022-11-25T17:28:02.349Z,5.97
2022-11-25T17:30:29.716Z,5.89
2022-11-25T17:33:01.151Z,5.86
2022-11-25T17:35:28.061Z,5.82
2022-11-25T17:37:56.876Z,5.78
2022-11-25T17:40:23.956Z,5.80
2022-11-25T17:42:51.055Z,5.75
2022-11-25T17:45:20.676Z,5.68
2022-11-25T17:47:47.996Z,5.71
2022-11-25T17:50:25.919Z,5.73
2022-11-25T17:52:53.055Z,5.63
2022-11-25T17:55:20.838Z,5.75
2022-11-25T17:57:48.937Z,5.69
2022-11-25T18:00:19.768Z,5.70
2022-11-25T18:02:46.923Z,5.69
2022-11-25T18:05:15.441Z,5.70
2022-11-25T18:07:43.736Z,5.68
2022-11-25T18:10:13.392Z,5.68
2022-11-25T18:12:40.914Z,5.68
2022-11-25T18:15:14.403Z,5.75
2022-11-25T18:17:41.507Z,5.69
2022-11-25T18:20:16.681Z,5.69
2022-11-25T18:22:45.439Z,5.76
2022-11-25T18:25:17.708Z,5.76
2022-11-25T18:27:45.931Z,5.78
2022-11-25T18:30:21.902Z,5.80
2022-11-25T18:32:49.063Z,5.76
2022-11-25T18:35:19.457Z,5.70
2022-11-25T18:37:46.289Z,5.66
2022-11-25T18:40:13.940Z,5.65
2022-11-25T18:42:45.444Z,5.67
2022-11-25T18:45:22.095Z,5.66
2022-11-25T18:47:49.598Z,5.70
2022-11-25T18:50:25.458Z,5.74
2022-11-25T18:52:54.070Z,5.70
2022-11-25T18:55:23.238Z,5.62
2022-11-25T18:57:52.156Z,5.62
2022-11-25T19:00:32.336Z,5.58
2022-11-25T19:02:59.922Z,5.68
2022-11-25T19:05:31.042Z,5.66
2022-11-25T19:07:57.875Z,5.62
2022-11-25T19:10:28.553Z,5.69
2022-11-25T19:13:03.058Z,5.72
2022-11-25T19:15:29.915Z,5.72
2022-11-25T19:18:10.155Z,5.80
2022-11-25T19:20:37.013Z,5.85
2022-11-25T19:23:18.767Z,5.86
2022-11-25T19:25:48.280Z,5.87
2022-11-25T19:28:18.324Z,5.91
2022-11-25T19:30:47.538Z,5.91
2022-11-25T19:33:33.150Z,6.01
2022-11-25T19:36:00.131Z,6.02
2022-11-25T19:38:29.784Z,5.98
2022-11-25T19:40:57.411Z,5.96
2022-11-25T19:43:25.706Z,5.96
2022-11-25T19:45:53.783Z,6.03
2022-11-25T19:48:22.090Z,5.97
2022-11-25T19:50:51.680Z,6.04
2022-11-25T19:53:20.801Z,5.96
2022-11-25T19:55:48.652Z,5.97
2022-11-25T19:58:16.034Z,5.92
2022-11-25T20:00:44.460Z,5.77
2022-11-25T20:03:24.438Z,5.76
2022-11-25T20:05:53.340Z,5.85
2022-11-25T20:08:26.031Z,5.68
2022-11-25T20:10:53.398Z,5.69
2022-11-25T20:13:20.441Z,5.59
2022-11-25T20:15:47.465Z,5.53
2022-11-25T20:18:22.112Z,5.39
2022-11-25T20:20:52.489Z,5.43
2022-11-25T20:23:27.561Z,5.40
2022-11-25T20:25:54.923Z,5.33
2022-11-25T20:28:27.431Z,5.26
2022-11-25T20:30:54.577Z,5.18
2022-11-25T20:33:24.703Z,5.22
2022-11-25T20:35:58.093Z,5.11
2022-11-25T20:38:27.923Z,5.09
2022-11-25T20:40:58.114Z,5.01
2022-11-25T20:43:35.489Z,5.07
2022-11-25T20:46:03.110Z,5.05
2022-11-25T20:48:33.093Z,5.05
2022-11-25T20:51:00.986Z,5.05
2022-11-25T20:53:28.447Z,5.12
2022-11-25T20:55:55.286Z,5.16
2022-11-25T20:58:30.713Z,5.15
2022-11-25T21:00:58.449Z,5.14
2022-11-25T21:03:26.168Z,5.08
2022-11-25T21:05:54.266Z,5.06
2022-11-25T21:08:24.187Z,5.07
2022-11-25T21:10:54.040Z,5.02
2022-11-25T21:13:24.178Z,4.97
2022-11-25T21:15:51.606Z,5.01
2022-11-25T21:18:18.878Z,4.98
2022-11-25T21:20:46.499Z,4.97
2022-11-25T21:23:20.251Z,5.01
2022-11-25T21:25:48.790Z,4.93
2022-11-25T21:28:19.121Z,4.90
2022-11-25T21:30:46.054Z,4.93
2022-11-25T21:33:13.239Z,4.96
2022-11-25T21:35:42.338Z,4.97
2022-11-25T21:38:17.081Z,4.96
2022-11-25T21:40:58.256Z,4.98
2022-11-25T21:43:30.473Z,5.07
2022-11-25T21:46:02.203Z,5.00
2022-11-25T21:48:30.199Z,4.99
2022-11-25T21:50:57.667Z,4.95
2022-11-25T21:53:24.905Z,4.83
2022-11-25T21:55:52.169Z,4.89
2022-11-25T21:58:26.523Z,4.92
2022-11-25T22:01:01.756Z,4.95
2022-11-25T22:03:31.183Z,4.98
2022-11-25T22:05:58.219Z,5.03
2022-11-25T22:08:25.036Z,4.94
2022-11-25T22:10:54.896Z,4.96
2022-11-25T22:13:27.633Z,4.99
2022-11-25T22:15:57.690Z,5.03
2022-11-25T22:18:36.186Z,5.09
2022-11-25T22:21:03.539Z,5.07
2022-11-25T22:23:30.312Z,5.07
2022-11-25T22:25:57.847Z,5.13
2022-11-25T22:28:28.323Z,5.14
2022-11-25T22:30:57.216Z,5.16
2022-11-25T22:33:31.291Z,5.23
2022-11-25T22:35:58.273Z,5.18
2022-11-25T22:38:25.160Z,5.13
2022-11-25T22:40:58.978Z,5.18
2022-11-25T22:43:40.845Z,5.16
2022-11-25T22:46:07.869Z,5.05
2022-11-25T22:48:37.352Z,5.01
2022-11-25T22:51:05.912Z,5.03
2022-11-25T22:53:32.864Z,5.01
2022-11-25T22:55:59.707Z,4.90
2022-11-25T22:58:27.421Z,4.92
2022-11-25T23:00:56.089Z,4.94
2022-11-25T23:03:27.045Z,4.82
2022-11-25T23:05:54.381Z,4.84
2022-11-25T23:08:29.914Z,4.88
2022-11-25T23:10:57.667Z,4.94
2022-11-25T23:13:24.934Z,4.97
2022-11-25T23:16:00.164Z,5.01
2022-11-25T23:18:38.384Z,5.01
2022-11-25T23:21:22.232Z,4.93
2022-11-25T23:23:49.820Z,4.94
2022-11-25T23:26:16.736Z,4.90
2022-11-25T23:28:43.605Z,4.98
2022-11-25T23:31:16.474Z,5.07
2022-11-25T23:33:49.770Z,5.14
2022-11-25T23:36:29.723Z,5.25
2022-11-25T23:39:02.105Z,5.25
2022-11-25T23:41:31.959Z,5.37
2022-11-25T23:44:06.108Z,5.43
2022-11-25T23:46:34.722Z,5.48
2022-11-25T23:49:04.398Z,5.53
2022-11-25T23:51:31.379Z,5.57
2022-11-25T23:53:59.135Z,5.70
2022-11-25T23:56:27.470Z,5.69
2022-11-25T23:58:54.458Z,5.72
